createdAt,value
2023-03-26T00:01:40.296Z,7.19
2023-03-26T00:04:27.964Z,7.19
2023-03-26T00:07:13.756Z,7.20
2023-03-26T00:09:59.847Z,7.17
2023-03-26T00:12:45.794Z,7.15
2023-03-26T00:15:31.620Z,7.14
2023-03-26T00:18:19.962Z,7.17
2023-03-26T00:21:07.876Z,7.16
2023-03-26T00:23:53.604Z,7.17
2023-03-26T00:26:40.926Z,7.18
2023-03-26T00:29:27.799Z,7.21
2023-03-26T00:32:13.715Z,7.17
2023-03-26T00:35:00.787Z,7.20
2023-03-26T00:37:51.358Z,7.18
2023-03-26T00:40:46.613Z,7.17
2023-03-26T00:43:32.909Z,7.21
2023-03-26T00:46:21.094Z,7.20
2023-03-26T00:49:12.548Z,7.23
2023-03-26T00:51:59.255Z,7.24
2023-03-26T00:54:47.143Z,7.23
2023-03-26T00:57:37.461Z,7.21
2023-03-26T01:00:28.854Z,7.22
2023-03-26T01:03:26.797Z,7.24
2023-03-26T01:06:14.667Z,7.24
2023-03-26T01:09:07.319Z,7.21
2023-03-26T01:11:55.658Z,7.23
2023-03-26T01:14:41.565Z,7.19
2023-03-26T01:17:34.285Z,7.19
2023-03-26T01:20:21.354Z,7.20
2023-03-26T01:23:09.670Z,7.19
2023-03-26T01:25:58.028Z,7.18
2023-03-26T01:28:57.351Z,7.16
2023-03-26T01:31:48.864Z,7.16
2023-03-26T01:34:37.383Z,7.14
2023-03-26T01:37:24.629Z,7.14
2023-03-26T01:40:12.510Z,7.11
2023-03-26T01:43:01.357Z,7.07
2023-03-26T01:45:47.311Z,7.07
2023-03-26T01:48:34.692Z,7.02
2023-03-26T01:51:27.609Z,6.99
2023-03-26T01:54:14.421Z,6.96
2023-03-26T01:57:03.189Z,6.94
2023-03-26T01:59:58.046Z,6.91
2023-03-26T02:02:46.868Z,6.85
2023-03-26T02:05:34.044Z,6.80
2023-03-26T02:08:22.631Z,6.76
2023-03-26T02:11:12.963Z,6.73
2023-03-26T02:13:59.489Z,6.66
2023-03-26T02:16:47.795Z,6.65
2023-03-26T02:19:33.794Z,6.63
2023-03-26T02:22:19.559Z,6.60
2023-03-26T02:25:05.710Z,6.53
2023-03-26T02:27:52.354Z,6.48
2023-03-26T02:30:39.806Z,6.46
2023-03-26T02:33:27.358Z,6.47
2023-03-26T02:36:14.038Z,6.46
2023-03-26T02:39:02.309Z,6.43
2023-03-26T02:41:51.605Z,6.44
2023-03-26T02:44:40.079Z,6.45
2023-03-26T02:47:33.557Z,6.46
2023-03-26T02:50:50.139Z,6.45
2023-03-26T02:53:55.949Z,6.44
2023-03-26T02:56:59.711Z,6.46
2023-03-26T03:00:16.627Z,6.46
2023-03-26T03:03:06.600Z,6.48
2023-03-26T03:05:54.379Z,6.49
2023-03-26T03:08:49.883Z,6.46
2023-03-26T03:11:36.399Z,6.48
2023-03-26T03:14:23.987Z,6.44
2023-03-26T03:17:09.844Z,6.43
2023-03-26T03:19:55.745Z,6.44
2023-03-26T03:22:42.740Z,6.39
2023-03-26T03:25:28.490Z,6.38
2023-03-26T03:28:15.220Z,6.34
2023-03-26T03:31:01.103Z,6.34
2023-03-26T03:33:51.113Z,6.29
2023-03-26T03:36:38.338Z,6.27
2023-03-26T03:39:34.206Z,6.24
2023-03-26T03:42:20.679Z,6.20
2023-03-26T03:45:09.048Z,6.17
2023-03-26T03:48:13.432Z,6.11
2023-03-26T03:51:02.845Z,6.07
2023-03-26T03:53:58.159Z,6.03
2023-03-26T03:57:15.887Z,5.98
2023-03-26T04:00:11.946Z,5.94
2023-03-26T04:03:09.990Z,5.91
2023-03-26T04:05:56.174Z,5.86
2023-03-26T04:08:45.499Z,5.83
2023-03-26T04:11:31.259Z,5.78
2023-03-26T04:14:32.414Z,5.71
2023-03-26T04:17:22.170Z,5.64
2023-03-26T04:20:14.852Z,5.60
2023-03-26T04:23:03.279Z,5.56
2023-03-26T04:25:50.325Z,5.53
2023-03-26T04:28:42.827Z,5.51
2023-03-26T04:31:38.173Z,5.50
2023-03-26T04:34:25.036Z,5.52
2023-03-26T04:37:26.510Z,5.54
2023-03-26T04:40:23.156Z,5.54
2023-03-26T04:43:21.652Z,5.54
2023-03-26T04:46:26.583Z,5.56
2023-03-26T04:49:24.819Z,5.59
2023-03-26T04:52:11.091Z,5.61
2023-03-26T04:55:19.612Z,5.63
2023-03-26T04:58:09.451Z,5.64
2023-03-26T05:01:12.561Z,5.62
2023-03-26T05:04:01.824Z,5.63
2023-03-26T05:06:50.025Z,5.65
2023-03-26T05:09:42.254Z,5.66
2023-03-26T05:12:35.362Z,5.68
2023-03-26T05:15:25.632Z,5.66
2023-03-26T05:18:25.223Z,5.67
2023-03-26T05:21:12.508Z,5.68
2023-03-26T05:24:01.985Z,5.71
2023-03-26T05:26:47.787Z,5.73
2023-03-26T05:29:34.050Z,5.72
2023-03-26T05:32:20.826Z,5.73
2023-03-26T05:35:09.786Z,5.74
2023-03-26T05:37:56.755Z,5.78
2023-03-26T05:40:45.249Z,5.79
2023-03-26T05:43:36.389Z,5.83
2023-03-26T05:46:35.117Z,5.86
2023-03-26T05:49:21.133Z,5.90
2023-03-26T05:52:07.528Z,5.95
2023-03-26T05:55:12.747Z,6.01
2023-03-26T05:58:19.078Z,6.04
2023-03-26T06:01:29.291Z,6.12
2023-03-26T06:04:35.259Z,6.18
2023-03-26T06:07:40.417Z,6.23
2023-03-26T06:10:33.764Z,6.28
2023-03-26T06:13:21.200Z,6.32
2023-03-26T06:16:09.200Z,6.35
2023-03-26T06:19:16.529Z,6.41
2023-03-26T06:22:08.620Z,6.46
2023-03-26T06:25:12.874Z,6.53
2023-03-26T06:28:06.520Z,6.53
2023-03-26T06:31:09.589Z,6.61
2023-03-26T06:34:03.877Z,6.66
2023-03-26T06:36:52.470Z,6.71
2023-03-26T06:39:39.572Z,6.73
2023-03-26T06:43:08.225Z,6.79
2023-03-26T06:46:14.573Z,6.85
2023-03-26T06:49:19.355Z,6.94
2023-03-26T06:52:23.913Z,6.97
2023-03-26T06:55:26.489Z,7.06
2023-03-26T06:58:43.404Z,7.13
2023-03-26T07:01:49.456Z,7.26
2023-03-26T07:04:54.414Z,7.41
2023-03-26T07:08:09.494Z,7.59
2023-03-26T07:11:16.581Z,7.71
2023-03-26T07:14:21.400Z,7.87
2023-03-26T07:17:20.929Z,7.98
2023-03-26T07:20:21.842Z,8.10
2023-03-26T07:23:07.904Z,8.14
2023-03-26T07:26:14.270Z,8.16
2023-03-26T07:29:16.649Z,8.27
2023-03-26T07:32:28.030Z,8.40
2023-03-26T07:35:33.784Z,8.55
2023-03-26T07:38:33.455Z,8.64
2023-03-26T07:41:39.920Z,8.71
2023-03-26T07:44:48.424Z,8.84
2023-03-26T07:47:57.017Z,8.97
2023-03-26T07:50:54.205Z,9.12
2023-03-26T07:53:47.962Z,9.30
2023-03-26T07:57:14.447Z,9.45
2023-03-26T08:00:14.159Z,9.58
2023-03-26T08:03:14.704Z,9.59
2023-03-26T08:06:32.165Z,9.87
2023-03-26T08:09:39.560Z,10.12
2023-03-26T08:12:52.174Z,10.31
2023-03-26T08:15:39.139Z,10.56
2023-03-26T08:18:29.154Z,10.77
2023-03-26T08:21:17.093Z,10.94
2023-03-26T08:24:04.729Z,11.03
2023-03-26T08:26:52.755Z,11.17
2023-03-26T08:29:39.523Z,11.25
2023-03-26T08:32:25.476Z,11.32
2023-03-26T08:35:14.361Z,11.42
2023-03-26T08:38:00.350Z,11.49
2023-03-26T08:41:04.550Z,11.62
2023-03-26T08:43:56.120Z,11.70
2023-03-26T08:46:50.290Z,11.77
2023-03-26T08:49:51.402Z,11.81
2023-03-26T08:52:49.608Z,11.87
2023-03-26T08:55:38.466Z,11.90
2023-03-26T08:58:45.485Z,11.98
2023-03-26T09:01:33.248Z,12.19
2023-03-26T09:04:27.105Z,12.25
2023-03-26T09:07:25.420Z,12.26
2023-03-26T09:10:27.728Z,12.32
2023-03-26T09:13:34.036Z,12.30
2023-03-26T09:16:26.749Z,12.28
2023-03-26T09:19:29.791Z,12.22
2023-03-26T09:22:24.218Z,12.27
2023-03-26T09:25:25.140Z,12.25
2023-03-26T09:28:26.416Z,12.16
2023-03-26T09:31:18.014Z,12.01
2023-03-26T09:34:15.442Z,12.05
2023-03-26T09:37:15.001Z,12.03
2023-03-26T09:40:05.013Z,11.90
2023-03-26T09:42:54.304Z,12.02
2023-03-26T09:45:47.687Z,12.05
2023-03-26T09:48:43.784Z,12.07
2023-03-26T09:51:32.049Z,11.98
2023-03-26T09:54:38.601Z,12.05
2023-03-26T09:57:29.189Z,12.01
2023-03-26T10:00:17.079Z,12.12
2023-03-26T10:03:14.917Z,12.08
2023-03-26T10:06:03.706Z,12.09
2023-03-26T10:08:55.325Z,12.07
2023-03-26T10:11:55.255Z,12.17
2023-03-26T10:14:42.209Z,12.27
2023-03-26T10:17:33.538Z,12.30
2023-03-26T10:20:26.506Z,12.24
2023-03-26T10:23:16.750Z,12.30
2023-03-26T10:26:18.798Z,12.19
2023-03-26T10:29:09.625Z,12.36
2023-03-26T10:31:57.574Z,12.62
2023-03-26T10:34:56.494Z,12.83
2023-03-26T10:37:51.486Z,12.97
2023-03-26T10:40:42.683Z,13.12
2023-03-26T10:43:31.245Z,13.25
2023-03-26T10:46:36.756Z,13.44
2023-03-26T10:49:33.606Z,13.68
2023-03-26T10:52:20.862Z,13.74
2023-03-26T10:55:12.560Z,14.04
2023-03-26T10:57:59.096Z,14.17
2023-03-26T11:00:45.738Z,14.39
2023-03-26T11:03:38.527Z,14.35
2023-03-26T11:06:29.862Z,14.54
2023-03-26T11:09:19.799Z,14.67
2023-03-26T11:12:26.647Z,14.85
2023-03-26T11:15:17.838Z,15.03
2023-03-26T11:18:06.006Z,15.09
2023-03-26T11:20:52.367Z,15.37
2023-03-26T11:23:41.314Z,15.52
2023-03-26T11:26:28.058Z,15.74
2023-03-26T11:29:31.129Z,15.78
2023-03-26T11:32:21.077Z,15.84
2023-03-26T11:35:08.897Z,15.92
2023-03-26T11:37:55.812Z,15.81
2023-03-26T11:40:42.564Z,15.78
2023-03-26T11:43:37.131Z,15.75
2023-03-26T11:46:24.808Z,15.79
2023-03-26T11:49:11.708Z,15.77
2023-03-26T11:51:59.026Z,15.70
2023-03-26T11:54:48.160Z,15.63
2023-03-26T11:57:34.092Z,15.28
2023-03-26T12:00:21.018Z,15.19
2023-03-26T12:03:08.577Z,15.25
2023-03-26T12:05:58.794Z,15.20
2023-03-26T12:08:44.548Z,15.07
2023-03-26T12:11:35.652Z,15.04
2023-03-26T12:14:22.023Z,14.76
2023-03-26T12:17:08.789Z,14.67
2023-03-26T12:19:55.892Z,14.54
2023-03-26T12:22:44.331Z,14.26
2023-03-26T12:25:31.798Z,14.27
2023-03-26T12:28:18.160Z,14.13
2023-03-26T12:31:05.555Z,14.11
2023-03-26T12:34:05.978Z,14.16
2023-03-26T12:36:54.377Z,14.10
2023-03-26T12:40:10.486Z,14.05
2023-03-26T12:44:53.470Z,13.97
2023-03-26T12:47:54.551Z,13.75
2023-03-26T12:49:01.982Z,13.87
2023-03-26T12:51:49.325Z,13.83
2023-03-26T12:54:42.997Z,13.81
2023-03-26T12:57:30.632Z,13.81
2023-03-26T13:00:21.308Z,13.76
2023-03-26T13:03:11.928Z,13.54
2023-03-26T13:06:00.395Z,13.63
2023-03-26T13:08:50.908Z,13.58
2023-03-26T13:11:39.715Z,13.41
2023-03-26T13:14:35.247Z,13.43
2023-03-26T13:17:23.112Z,13.41
2023-03-26T13:20:12.168Z,13.21
2023-03-26T13:22:59.329Z,13.30
2023-03-26T13:25:46.685Z,13.05
2023-03-26T13:28:34.985Z,13.06
2023-03-26T13:31:22.696Z,12.82
2023-03-26T13:34:11.014Z,12.83
2023-03-26T13:37:00.062Z,12.87
2023-03-26T13:39:49.899Z,12.83
2023-03-26T13:42:39.261Z,12.62
2023-03-26T13:45:30.475Z,12.76
2023-03-26T13:48:18.158Z,12.61
2023-03-26T13:51:05.689Z,12.70
2023-03-26T13:53:53.525Z,12.76
2023-03-26T13:56:41.538Z,12.56
2023-03-26T13:59:30.390Z,12.55
2023-03-26T14:02:18.890Z,12.61
2023-03-26T14:05:05.665Z,12.54
2023-03-26T14:07:52.291Z,12.53
2023-03-26T14:10:38.920Z,12.49
2023-03-26T14:13:25.856Z,12.51
2023-03-26T14:16:13.172Z,12.37
2023-03-26T14:19:04.499Z,12.19
2023-03-26T14:21:56.870Z,12.13
2023-03-26T14:25:01.030Z,12.16
2023-03-26T14:27:50.076Z,12.06
2023-03-26T14:30:41.736Z,12.04
2023-03-26T14:33:42.468Z,11.96
2023-03-26T14:36:38.864Z,11.97
2023-03-26T14:39:32.750Z,11.91
2023-03-26T14:42:19.660Z,11.78
2023-03-26T14:45:09.786Z,11.61
2023-03-26T14:48:09.732Z,11.65
2023-03-26T14:50:59.618Z,11.65
2023-03-26T14:53:47.475Z,11.45
2023-03-26T14:56:39.749Z,11.34
2023-03-26T14:59:44.308Z,11.14
2023-03-26T15:02:42.422Z,10.79
2023-03-26T15:05:33.720Z,10.99
2023-03-26T15:08:36.195Z,11.00
2023-03-26T15:11:25.603Z,10.90
2023-03-26T15:14:17.438Z,10.95
2023-03-26T15:17:34.339Z,10.98
2023-03-26T15:20:44.314Z,10.77
2023-03-26T15:23:49.512Z,10.80
2023-03-26T15:26:57.428Z,10.67
2023-03-26T15:30:13.587Z,10.64
2023-03-26T15:33:07.328Z,10.38
2023-03-26T15:36:09.700Z,10.50
2023-03-26T15:39:01.147Z,10.65
2023-03-26T15:41:47.810Z,10.52
2023-03-26T15:44:47.246Z,10.60
2023-03-26T15:47:50.752Z,10.51
2023-03-26T15:50:40.714Z,10.53
2023-03-26T15:53:33.585Z,10.21
2023-03-26T15:56:26.743Z,10.33
2023-03-26T15:59:16.497Z,10.24
2023-03-26T16:02:03.990Z,10.19
2023-03-26T16:04:51.266Z,10.17
2023-03-26T16:07:47.198Z,10.04
2023-03-26T16:10:35.846Z,10.02
2023-03-26T16:13:24.886Z,9.83
2023-03-26T16:16:25.937Z,9.86
2023-03-26T16:19:36.087Z,9.61
2023-03-26T16:22:42.895Z,9.70
2023-03-26T16:25:32.642Z,9.60
2023-03-26T16:28:28.927Z,9.46
2023-03-26T16:31:36.759Z,9.45
2023-03-26T16:34:28.626Z,9.45
2023-03-26T16:37:35.520Z,9.36
2023-03-26T16:40:28.175Z,9.32
2023-03-26T16:43:29.236Z,9.30
2023-03-26T16:46:24.538Z,9.31
2023-03-26T16:49:17.042Z,9.26
2023-03-26T16:52:07.097Z,9.20
2023-03-26T16:54:55.179Z,9.16
2023-03-26T16:57:42.587Z,9.10
2023-03-26T17:00:35.719Z,9.05
2023-03-26T17:03:28.529Z,8.98
2023-03-26T17:06:37.944Z,8.94
2023-03-26T17:09:24.577Z,8.86
2023-03-26T17:12:14.968Z,8.86
2023-03-26T17:15:05.762Z,8.78
2023-03-26T17:18:02.559Z,8.72
2023-03-26T17:20:55.805Z,8.69
2023-03-26T17:23:48.275Z,8.61
2023-03-26T17:26:42.157Z,8.50
2023-03-26T17:29:29.802Z,8.48
2023-03-26T17:32:16.056Z,8.44
2023-03-26T17:35:03.561Z,8.41
2023-03-26T17:37:51.373Z,8.32
2023-03-26T17:40:45.609Z,8.25
2023-03-26T17:43:36.379Z,8.22
2023-03-26T17:46:31.626Z,8.07
2023-03-26T17:49:18.172Z,7.97
2023-03-26T17:52:04.891Z,7.94
2023-03-26T17:54:52.259Z,7.89
2023-03-26T17:57:41.793Z,7.84
2023-03-26T18:00:29.137Z,7.74
2023-03-26T18:03:15.257Z,7.66
2023-03-26T18:06:05.270Z,7.51
2023-03-26T18:08:56.151Z,7.47
2023-03-26T18:11:50.681Z,7.34
2023-03-26T18:14:46.785Z,7.19
2023-03-26T18:17:32.635Z,7.14
2023-03-26T18:20:23.191Z,7.08
2023-03-26T18:23:10.275Z,7.07
2023-03-26T18:25:57.728Z,7.01
2023-03-26T18:28:45.733Z,6.98
2023-03-26T18:31:31.523Z,6.88
2023-03-26T18:34:18.825Z,6.78
2023-03-26T18:37:15.498Z,6.74
2023-03-26T18:40:02.194Z,6.69
2023-03-26T18:42:48.638Z,6.58
2023-03-26T18:45:37.090Z,6.45
2023-03-26T18:48:23.972Z,6.36
2023-03-26T18:51:09.876Z,6.31
2023-03-26T18:53:56.918Z,6.24
2023-03-26T18:56:43.542Z,6.13
2023-03-26T18:59:32.102Z,6.05
2023-03-26T19:02:19.752Z,6.02
2023-03-26T19:05:06.235Z,5.94
2023-03-26T19:07:52.314Z,5.83
2023-03-26T19:10:38.263Z,5.79
2023-03-26T19:13:24.399Z,5.61
2023-03-26T19:16:13.589Z,5.60
2023-03-26T19:19:00.867Z,5.53
2023-03-26T19:21:46.915Z,5.45
2023-03-26T19:24:32.641Z,5.42
2023-03-26T19:27:19.214Z,5.35
2023-03-26T19:30:05.480Z,5.29
2023-03-26T19:32:53.257Z,5.18
2023-03-26T19:35:41.921Z,5.14
2023-03-26T19:38:29.236Z,5.02
2023-03-26T19:41:18.944Z,4.98
2023-03-26T19:44:13.567Z,4.80
2023-03-26T19:47:02.338Z,4.81
2023-03-26T19:49:50.149Z,4.69
2023-03-26T19:52:38.218Z,4.66
2023-03-26T19:55:24.907Z,4.57
2023-03-26T19:58:11.025Z,4.54
2023-03-26T20:00:57.176Z,4.52
2023-03-26T20:03:43.625Z,4.47
2023-03-26T20:06:42.652Z,4.40
2023-03-26T20:09:30.805Z,4.40
2023-03-26T20:12:16.702Z,4.30
2023-03-26T20:15:02.761Z,4.24
2023-03-26T20:17:50.137Z,4.23
2023-03-26T20:20:36.386Z,4.14
2023-03-26T20:23:23.784Z,4.10
2023-03-26T20:26:12.787Z,4.06
2023-03-26T20:28:58.820Z,3.93
2023-03-26T20:31:45.794Z,3.92
2023-03-26T20:34:31.967Z,3.85
2023-03-26T20:37:17.745Z,3.83
2023-03-26T20:40:07.121Z,3.79
2023-03-26T20:42:54.489Z,3.74
2023-03-26T20:45:40.645Z,3.75
2023-03-26T20:48:26.909Z,3.67
2023-03-26T20:51:13.834Z,3.59
2023-03-26T20:54:00.335Z,3.55
2023-03-26T20:56:47.788Z,3.51
2023-03-26T20:59:35.789Z,3.48
2023-03-26T21:02:21.766Z,3.41
2023-03-26T21:05:14.697Z,3.35
2023-03-26T21:08:01.051Z,3.32
2023-03-26T21:10:47.499Z,3.28
2023-03-26T21:13:35.219Z,3.21
2023-03-26T21:16:23.042Z,3.24
2023-03-26T21:19:10.096Z,3.21
2023-03-26T21:21:59.068Z,3.19
2023-03-26T21:24:48.173Z,3.19
2023-03-26T21:27:37.177Z,3.18
2023-03-26T21:30:23.646Z,3.16
2023-03-26T21:33:10.823Z,3.13
2023-03-26T21:35:57.267Z,3.12
2023-03-26T21:38:44.533Z,3.11
2023-03-26T21:41:35.701Z,3.11
2023-03-26T21:44:21.991Z,3.09
2023-03-26T21:47:09.766Z,3.09
2023-03-26T21:49:57.626Z,3.10
2023-03-26T21:52:47.922Z,3.06
2023-03-26T21:55:34.916Z,3.07
2023-03-26T21:58:27.775Z,3.02
2023-03-26T22:01:16.725Z,3.01
2023-03-26T22:04:05.452Z,3.06
2023-03-26T22:06:54.880Z,3.03
2023-03-26T22:09:40.843Z,3.06
2023-03-26T22:12:27.024Z,3.06
2023-03-26T22:15:13.675Z,3.04
2023-03-26T22:18:03.469Z,3.05
2023-03-26T22:20:49.648Z,3.07
2023-03-26T22:23:38.151Z,3.08
2023-03-26T22:26:24.628Z,3.03
2023-03-26T22:29:10.493Z,3.01
2023-03-26T22:31:56.378Z,3.00
2023-03-26T22:34:42.417Z,2.98
2023-03-26T22:37:28.635Z,2.94
2023-03-26T22:40:17.877Z,2.97
2023-03-26T22:43:04.090Z,2.94
2023-03-26T22:45:50.808Z,2.93
2023-03-26T22:48:37.028Z,2.91
2023-03-26T22:51:22.796Z,2.90
2023-03-26T22:54:09.343Z,2.90
2023-03-26T22:56:56.792Z,2.86
2023-03-26T22:59:43.182Z,2.89
2023-03-26T23:02:28.995Z,2.91
2023-03-26T23:05:17.226Z,2.85
2023-03-26T23:08:03.081Z,2.87
2023-03-26T23:10:48.914Z,2.87
2023-03-26T23:13:36.577Z,2.85
2023-03-26T23:16:22.445Z,2.81
2023-03-26T23:19:08.631Z,2.82
2023-03-26T23:21:57.265Z,2.81
2023-03-26T23:24:49.333Z,2.83
2023-03-26T23:27:49.112Z,2.78
2023-03-26T23:30:42.461Z,2.80
2023-03-26T23:33:31.410Z,2.79
2023-03-26T23:36:18.706Z,2.80
2023-03-26T23:39:05.574Z,2.73
2023-03-26T23:41:51.506Z,2.73
2023-03-26T23:44:39.047Z,2.70
2023-03-26T23:47:27.003Z,2.66
2023-03-26T23:50:13.113Z,2.63
2023-03-26T23:52:59.440Z,2.59
2023-03-26T23:55:45.733Z,2.58
2023-03-26T23:58:31.447Z,2.54
